createdAt,value
2022-11-09T00:01:26.854Z,81.98
2022-11-09T00:06:26.625Z,81.83
2022-11-09T00:11:24.955Z,81.85
2022-11-09T00:16:25.111Z,82.13
2022-11-09T00:21:25.274Z,82.30
2022-11-09T00:26:25.476Z,82.53
2022-11-09T00:31:26.513Z,82.55
2022-11-09T00:36:26.804Z,83.12
2022-11-09T00:41:26.278Z,82.80
2022-11-09T00:46:25.266Z,82.99
2022-11-09T00:51:25.153Z,82.84
2022-11-09T00:56:25.005Z,83.51
2022-11-09T01:01:25.103Z,83.05
2022-11-09T01:06:26.400Z,84.10
2022-11-09T01:11:25.008Z,84.20
2022-11-09T01:16:25.609Z,84.20
2022-11-09T01:21:26.206Z,84.47
2022-11-09T01:26:24.878Z,84.00
2022-11-09T01:31:25.054Z,84.61
2022-11-09T01:36:26.001Z,84.92
2022-11-09T01:41:26.840Z,84.47
2022-11-09T01:46:32.638Z,84.13
2022-11-09T01:51:30.919Z,84.58
2022-11-09T01:56:26.566Z,84.44
2022-11-09T02:01:25.279Z,84.42
2022-11-09T02:06:28.134Z,84.81
2022-11-09T02:11:26.573Z,84.51
2022-11-09T02:16:26.558Z,85.06
2022-11-09T02:21:27.136Z,85.07
2022-11-09T02:26:29.220Z,84.73
2022-11-09T02:31:30.271Z,84.56
2022-11-09T02:36:25.149Z,84.25
2022-11-09T02:41:26.905Z,83.94
2022-11-09T02:46:31.142Z,84.10
2022-11-09T02:51:25.109Z,84.07
2022-11-09T02:56:25.001Z,84.08
2022-11-09T03:01:24.954Z,84.51
2022-11-09T03:06:34.246Z,84.82
2022-11-09T03:11:24.796Z,84.69
2022-11-09T03:16:25.006Z,85.41
2022-11-09T03:21:25.138Z,84.70
2022-11-09T03:26:25.616Z,85.18
2022-11-09T03:31:24.860Z,85.17
2022-11-09T03:36:25.694Z,84.98
2022-11-09T03:41:24.784Z,84.80
2022-11-09T03:46:24.922Z,84.75
2022-11-09T03:51:25.050Z,84.59
2022-11-09T03:56:24.896Z,84.66
2022-11-09T04:01:25.035Z,84.66
2022-11-09T04:06:25.245Z,84.58
2022-11-09T04:11:24.780Z,84.55
2022-11-09T04:16:24.878Z,84.55
2022-11-09T04:21:25.387Z,84.61
2022-11-09T04:26:24.743Z,84.72
2022-11-09T04:31:28.002Z,84.75
2022-11-09T04:36:25.369Z,84.60
2022-11-09T04:41:26.544Z,84.52
2022-11-09T04:46:25.818Z,84.56
2022-11-09T04:51:26.183Z,84.74
2022-11-09T04:56:24.843Z,84.75
2022-11-09T05:01:24.828Z,84.87
2022-11-09T05:06:32.275Z,84.95
2022-11-09T05:11:24.831Z,85.02
2022-11-09T05:16:25.243Z,84.92
2022-11-09T05:21:25.211Z,84.99
2022-11-09T05:26:27.031Z,85.08
2022-11-09T05:31:25.650Z,84.96
2022-11-09T05:36:26.913Z,85.07
2022-11-09T05:41:25.787Z,84.91
2022-11-09T05:46:25.403Z,84.79
2022-11-09T05:51:25.120Z,85.22
2022-11-09T05:56:24.684Z,85.24
2022-11-09T06:01:24.757Z,84.96
2022-11-09T06:06:25.030Z,84.88
2022-11-09T06:11:24.790Z,84.91
2022-11-09T06:16:24.781Z,84.64
2022-11-09T06:21:25.487Z,84.42
2022-11-09T06:26:24.657Z,83.99
2022-11-09T06:31:24.762Z,83.57
2022-11-09T06:36:25.053Z,83.62
2022-11-09T06:41:25.083Z,83.25
2022-11-09T06:46:24.763Z,83.19
2022-11-09T06:51:25.588Z,82.80
2022-11-09T06:56:24.751Z,82.65
2022-11-09T07:01:27.986Z,82.11
2022-11-09T07:06:24.827Z,80.97
2022-11-09T07:11:24.800Z,80.38
2022-11-09T07:16:24.785Z,79.83
2022-11-09T07:21:24.933Z,79.35
2022-11-09T07:26:24.620Z,78.89
2022-11-09T07:31:28.461Z,79.21
2022-11-09T07:36:25.000Z,78.80
2022-11-09T07:41:25.141Z,77.94
2022-11-09T07:46:24.653Z,77.06
2022-11-09T07:51:24.949Z,75.58
2022-11-09T07:56:24.627Z,74.62
2022-11-09T08:01:24.742Z,74.72
2022-11-09T08:06:27.163Z,72.71
2022-11-09T08:11:25.766Z,69.22
2022-11-09T08:16:24.999Z,63.93
2022-11-09T08:21:24.869Z,61.62
2022-11-09T08:26:24.799Z,60.68
2022-11-09T08:31:24.745Z,58.01
2022-11-09T08:36:26.953Z,53.33
2022-11-09T08:41:24.773Z,55.61
2022-11-09T08:46:25.133Z,54.04
2022-11-09T08:51:24.980Z,50.18
2022-11-09T08:56:24.770Z,45.70
2022-11-09T09:01:24.591Z,43.56
2022-11-09T09:06:30.678Z,45.20
2022-11-09T09:11:24.573Z,46.75
2022-11-09T09:16:24.792Z,42.63
2022-11-09T09:21:24.890Z,39.73
2022-11-09T09:26:24.705Z,37.80
2022-11-09T09:31:24.735Z,37.15
2022-11-09T09:36:25.517Z,41.09
2022-11-09T09:41:30.491Z,45.26
2022-11-09T09:46:31.276Z,47.07
2022-11-09T09:51:38.899Z,48.03
2022-11-09T09:56:29.481Z,49.51
2022-11-09T10:01:34.589Z,51.34
2022-11-09T10:06:38.440Z,52.79
2022-11-09T10:11:35.196Z,54.50
2022-11-09T10:16:33.884Z,55.36
2022-11-09T10:21:34.152Z,55.93
2022-11-09T10:26:32.503Z,57.24
2022-11-09T10:31:29.354Z,58.34
2022-11-09T10:36:32.129Z,58.69
2022-11-09T10:41:30.933Z,59.65
2022-11-09T10:46:24.853Z,60.38
2022-11-09T10:51:31.731Z,60.80
2022-11-09T10:56:29.683Z,60.38
2022-11-09T11:01:35.079Z,61.20
2022-11-09T11:06:30.430Z,61.08
2022-11-09T11:11:33.655Z,61.26
2022-11-09T11:16:28.373Z,61.51
2022-11-09T11:21:26.230Z,61.44
2022-11-09T11:26:33.670Z,61.49
2022-11-09T11:31:24.663Z,61.41
2022-11-09T11:36:32.558Z,61.62
2022-11-09T11:41:41.469Z,61.56
2022-11-09T11:46:32.044Z,61.23
2022-11-09T11:51:33.778Z,60.86
2022-11-09T11:56:29.529Z,61.06
2022-11-09T12:01:38.509Z,61.51
2022-11-09T12:06:39.558Z,61.48
2022-11-09T12:11:35.122Z,61.30
2022-11-09T12:16:32.372Z,61.23
2022-11-09T12:21:33.354Z,61.22
2022-11-09T12:26:37.239Z,60.24
2022-11-09T12:31:34.275Z,59.83
2022-11-09T12:36:30.493Z,59.74
2022-11-09T12:41:29.929Z,59.86
2022-11-09T12:46:30.744Z,59.74
2022-11-09T12:51:25.235Z,60.04
2022-11-09T12:56:30.636Z,60.21
2022-11-09T13:01:43.763Z,60.55
2022-11-09T13:06:26.614Z,60.83
2022-11-09T13:11:34.717Z,61.28
2022-11-09T13:16:35.109Z,61.61
2022-11-09T13:21:34.774Z,62.03
2022-11-09T13:26:44.355Z,62.26
2022-11-09T13:31:44.362Z,62.83
2022-11-09T13:36:24.708Z,62.97
2022-11-09T13:41:42.920Z,63.08
2022-11-09T13:46:28.595Z,63.35
2022-11-09T13:51:40.833Z,63.83
2022-11-09T13:56:28.251Z,63.96
2022-11-09T14:01:27.213Z,63.91
2022-11-09T14:06:24.927Z,64.13
2022-11-09T14:11:42.390Z,64.14
2022-11-09T14:16:32.954Z,64.66
2022-11-09T14:21:35.665Z,64.75
2022-11-09T14:26:25.189Z,65.20
2022-11-09T14:31:26.894Z,65.83
2022-11-09T14:36:25.839Z,66.05
2022-11-09T14:41:27.111Z,66.63
2022-11-09T14:46:27.653Z,66.84
2022-11-09T14:51:28.097Z,66.81
2022-11-09T14:56:25.264Z,67.33
2022-11-09T15:01:26.445Z,67.23
2022-11-09T15:06:24.474Z,67.44
2022-11-09T15:11:31.297Z,67.46
2022-11-09T15:16:28.176Z,67.83
2022-11-09T15:21:34.181Z,67.80
2022-11-09T15:26:27.187Z,68.11
2022-11-09T15:31:26.796Z,68.07
2022-11-09T15:36:27.643Z,68.39
2022-11-09T15:41:26.204Z,68.60
2022-11-09T15:46:27.305Z,68.58
2022-11-09T15:51:24.624Z,68.99
2022-11-09T15:56:24.535Z,69.59
2022-11-09T16:01:24.969Z,69.47
2022-11-09T16:06:25.888Z,70.06
2022-11-09T16:11:24.568Z,70.01
2022-11-09T16:16:24.418Z,70.15
2022-11-09T16:21:24.557Z,70.57
2022-11-09T16:26:24.508Z,71.16
2022-11-09T16:31:48.313Z,71.27
2022-11-09T16:36:24.795Z,71.62
2022-11-09T16:41:24.593Z,71.75
2022-11-09T16:46:27.145Z,72.17
2022-11-09T16:51:24.655Z,72.65
2022-11-09T16:56:24.544Z,72.60
2022-11-09T17:01:24.538Z,72.63
2022-11-09T17:06:24.527Z,72.77
2022-11-09T17:11:24.388Z,72.87
2022-11-09T17:16:24.995Z,73.11
2022-11-09T17:21:26.860Z,73.25
2022-11-09T17:26:25.526Z,73.26
2022-11-09T17:31:25.734Z,73.82
2022-11-09T17:36:41.874Z,73.83
2022-11-09T17:41:24.398Z,73.96
2022-11-09T17:46:24.454Z,74.42
2022-11-09T17:51:24.651Z,74.74
2022-11-09T17:56:24.506Z,74.67
2022-11-09T18:01:24.567Z,74.55
2022-11-09T18:06:24.621Z,74.95
2022-11-09T18:11:24.345Z,74.75
2022-11-09T18:16:17.897Z,74.88
2022-11-09T18:16:24.313Z,74.88
2022-11-09T18:21:25.354Z,75.10
2022-11-09T18:26:24.358Z,75.15
2022-11-09T18:27:13.743Z,75.15
2022-11-09T18:31:24.235Z,75.51
2022-11-09T18:36:25.270Z,74.98
2022-11-09T18:41:25.401Z,75.12
2022-11-09T18:46:27.266Z,74.90
2022-11-09T18:51:24.765Z,75.29
2022-11-09T18:56:24.746Z,75.31
2022-11-09T19:01:25.991Z,75.46
2022-11-09T19:06:25.188Z,75.75
2022-11-09T19:11:24.660Z,75.80
2022-11-09T19:16:25.676Z,75.53
2022-11-09T19:21:36.211Z,76.04
2022-11-09T19:26:24.317Z,76.14
2022-11-09T19:31:24.523Z,76.02
2022-11-09T19:36:30.270Z,75.97
2022-11-09T19:41:25.726Z,76.08
2022-11-09T19:46:25.135Z,76.09
2022-11-09T19:51:25.671Z,76.12
2022-11-09T19:56:26.403Z,76.31
2022-11-09T20:01:24.462Z,76.60
2022-11-09T20:06:25.973Z,76.77
2022-11-09T20:11:35.366Z,76.62
2022-11-09T20:16:24.331Z,76.99
2022-11-09T20:21:24.755Z,77.49
2022-11-09T20:26:24.154Z,77.61
2022-11-09T20:31:24.368Z,78.04
2022-11-09T20:36:24.535Z,77.87
2022-11-09T20:41:25.634Z,77.91
2022-11-09T20:46:24.145Z,78.39
2022-11-09T20:51:24.821Z,78.19
2022-11-09T20:56:24.202Z,78.24
2022-11-09T21:01:24.419Z,78.83
2022-11-09T21:01:57.431Z,78.83
2022-11-09T21:06:24.123Z,79.28
2022-11-09T21:11:27.606Z,79.18
2022-11-09T21:16:24.321Z,79.88
2022-11-09T21:21:24.428Z,79.68
2022-11-09T21:26:35.239Z,80.01
2022-11-09T21:31:24.364Z,79.85
2022-11-09T21:36:24.298Z,80.35
2022-11-09T21:41:34.019Z,80.34
2022-11-09T21:46:24.505Z,80.52
2022-11-09T21:51:24.558Z,80.87
2022-11-09T21:56:24.678Z,81.23
2022-11-09T22:01:25.099Z,81.10
2022-11-09T22:06:24.710Z,81.09
2022-11-09T22:11:35.513Z,81.67
2022-11-09T22:16:25.956Z,81.94
2022-11-09T22:21:24.127Z,81.72
2022-11-09T22:26:24.615Z,81.81
2022-11-09T22:31:24.857Z,82.00
2022-11-09T22:36:24.216Z,82.66
2022-11-09T22:41:24.148Z,82.47
2022-11-09T22:46:24.208Z,82.79
2022-11-09T22:51:24.916Z,82.88
2022-11-09T22:56:24.093Z,82.38
2022-11-09T23:01:24.441Z,82.32
2022-11-09T23:06:24.490Z,82.96
2022-11-09T23:11:24.296Z,83.37
2022-11-09T23:16:24.808Z,83.55
2022-11-09T23:21:27.011Z,83.11
2022-11-09T23:26:25.163Z,82.73
2022-11-09T23:31:26.112Z,82.62
2022-11-09T23:36:25.723Z,82.97
2022-11-09T23:41:24.082Z,83.38
2022-11-09T23:46:24.149Z,83.31
2022-11-09T23:51:24.060Z,82.84
2022-11-09T23:56:24.024Z,82.72
